Time;durP1;ratioP1;P1;durP2;ratioP2;P2;SDS_P1;SDS_P2;PMS_P1;PMS_P2;Temp;Humidity;BMP_temperature;BMP_pressure;BME280_temperature;BME280_humidity;BME280_pressure;Samples;Min_cycle;Max_cycle;Signal;HPM_P1;HPM_P2
2023/07/08 00:01:11;;;;;;;6.40;4.83;;;19.50;99.90;;;;;;5096609;28;20471;-60
2023/07/08 00:03:40;;;;;;;5.50;5.00;;;19.40;99.90;;;;;;5097086;28;20460;-59
2023/07/08 00:06:12;;;;;;;6.20;4.97;;;19.40;99.90;;;;;;5096973;28;20591;-60
2023/07/08 00:08:40;;;;;;;5.57;4.97;;;19.50;99.90;;;;;;5097317;28;20463;-59
2023/07/08 00:11:11;;;;;;;5.60;4.50;;;19.50;99.90;;;;;;5097273;28;20490;-60
2023/07/08 00:13:39;;;;;;;5.50;4.50;;;19.60;99.90;;;;;;5096967;28;20823;-59
2023/07/08 00:16:10;;;;;;;4.60;4.20;;;19.60;99.90;;;;;;5096745;28;20460;-60
2023/07/08 00:18:38;;;;;;;5.27;4.77;;;19.50;99.90;;;;;;5097107;28;20464;-59
2023/07/08 00:21:15;;;;;;;5.57;4.70;;;19.60;99.90;;;;;;5096441;28;20513;-60
2023/07/08 00:23:42;;;;;;;5.90;4.70;;;19.60;99.90;;;;;;5097195;28;20542;-60
2023/07/08 00:26:16;;;;;;;5.17;4.67;;;19.70;99.90;;;;;;5097034;28;20484;-59
2023/07/08 00:28:43;;;;;;;5.47;4.97;;;19.60;99.90;;;;;;5096852;28;20466;-60
2023/07/08 00:31:11;;;;;;;6.30;4.23;;;19.70;99.90;;;;;;5096352;28;20464;-60
2023/07/08 00:33:39;;;;;;;5.10;4.60;;;19.60;99.90;;;;;;5096559;28;20507;-59
2023/07/08 00:36:12;;;;;;;5.17;4.67;;;19.60;99.90;;;;;;5096914;28;20532;-60
2023/07/08 00:38:44;;;;;;;5.43;4.60;;;19.60;99.90;;;;;;5096580;28;20486;-60
2023/07/08 00:41:15;;;;;;;5.10;4.60;;;19.60;99.90;;;;;;5097702;28;20563;-59
2023/07/08 00:43:46;;;;;;;6.03;5.43;;;19.50;99.90;;;;;;5100402;28;20464;-59
2023/07/08 00:46:26;;;;;;;5.10;4.60;;;19.40;99.90;;;;;;5100476;28;20815;-59
2023/07/08 00:48:58;;;;;;;5.10;4.57;;;19.40;99.90;;;;;;5099662;28;20459;-59
2023/07/08 00:51:27;;;;;;;5.10;4.60;;;19.40;99.90;;;;;;5100260;28;20845;-60
2023/07/08 00:53:54;;;;;;;6.80;4.80;;;19.30;99.90;;;;;;5100304;28;20482;-59
2023/07/08 00:56:27;;;;;;;4.97;4.47;;;19.20;99.90;;;;;;5100370;28;20457;-59
2023/07/08 00:58:58;;;;;;;5.30;4.90;;;19.10;99.90;;;;;;5099718;28;20936;-59
2023/07/08 01:01:27;;;;;;;5.63;5.03;;;19.00;99.90;;;;;;5099716;28;20562;-59
2023/07/08 01:04:01;;;;;;;9.77;5.20;;;19.00;99.90;;;;;;5100113;28;20483;-59
2023/07/08 01:06:32;;;;;;;6.60;4.73;;;19.00;99.90;;;;;;5099766;28;20488;-59
2023/07/08 01:09:05;;;;;;;5.47;5.00;;;19.00;99.90;;;;;;5099247;28;20538;-59
2023/07/08 01:11:33;;;;;;;7.37;5.37;;;18.90;99.90;;;;;;5099721;28;20769;-59
2023/07/08 01:14:03;;;;;;;6.40;5.07;;;19.00;99.90;;;;;;5099426;28;20471;-59
2023/07/08 01:16:33;;;;;;;6.20;4.90;;;19.00;99.90;;;;;;5098657;28;20464;-59
2023/07/08 01:19:01;;;;;;;5.40;4.90;;;19.00;99.90;;;;;;5099132;28;20465;-59
2023/07/08 01:21:33;;;;;;;6.30;4.70;;;18.90;99.90;;;;;;5099476;28;20471;-59
2023/07/08 01:24:05;;;;;;;5.80;5.20;;;18.80;99.90;;;;;;5099399;28;20460;-59
2023/07/08 01:26:34;;;;;;;4.80;4.47;;;18.70;99.90;;;;;;5099116;28;20488;-59
2023/07/08 01:29:02;;;;;;;6.20;4.60;;;18.70;99.90;;;;;;5099204;28;20547;-59
2023/07/08 01:31:30;;;;;;;5.97;4.60;;;18.50;99.90;;;;;;5099432;28;20507;-59
2023/07/08 01:33:57;;;;;;;5.20;4.67;;;18.40;99.90;;;;;;5098848;28;20787;-59
2023/07/08 01:36:25;;;;;;;7.13;4.97;;;18.50;99.90;;;;;;5099324;28;20480;-60
2023/07/08 01:38:52;;;;;;;5.63;5.00;;;18.40;99.90;;;;;;5098339;28;20488;-59
2023/07/08 01:41:20;;;;;;;4.27;3.83;;;18.40;99.90;;;;;;5098923;28;20758;-59
2023/07/08 01:43:48;;;;;;;4.80;4.40;;;18.40;99.90;;;;;;5099300;28;20482;-59
2023/07/08 01:46:19;;;;;;;5.43;4.47;;;18.30;99.90;;;;;;5098868;28;20526;-59
2023/07/08 01:48:49;;;;;;;5.87;5.27;;;18.30;99.90;;;;;;5099371;28;20479;-59
2023/07/08 01:51:17;;;;;;;5.10;4.60;;;18.30;99.90;;;;;;5098527;28;20774;-59
2023/07/08 01:53:44;;;;;;;5.20;4.70;;;18.30;99.90;;;;;;5098667;28;20763;-59
2023/07/08 01:56:13;;;;;;;6.13;5.53;;;18.10;99.90;;;;;;5098978;28;20456;-59
2023/07/08 01:58:42;;;;;;;4.57;4.13;;;18.00;99.90;;;;;;5099146;28;20460;-59
2023/07/08 02:01:10;;;;;;;5.77;5.27;;;18.10;99.90;;;;;;5098709;28;20492;-59
2023/07/08 02:03:37;;;;;;;6.93;4.90;;;18.00;99.90;;;;;;5098838;28;20464;-59
2023/07/08 02:06:06;;;;;;;6.37;5.77;;;17.90;99.90;;;;;;5098476;28;20588;-56
2023/07/08 02:08:33;;;;;;;5.77;5.27;;;17.80;99.90;;;;;;5098983;28;20456;-57
2023/07/08 02:11:00;;;;;;;6.20;5.23;;;17.90;99.90;;;;;;5098410;28;20471;-57
2023/07/08 02:13:28;;;;;;;5.47;4.97;;;17.80;99.90;;;;;;5098463;28;20460;-57
2023/07/08 02:15:57;;;;;;;7.30;5.23;;;17.80;99.90;;;;;;5098393;28;20554;-57
2023/07/08 02:18:24;;;;;;;6.50;4.47;;;17.80;99.90;;;;;;5098663;28;20460;-57
2023/07/08 02:20:52;;;;;;;5.73;5.17;;;17.80;99.90;;;;;;5098347;28;20461;-57
2023/07/08 02:23:19;;;;;;;7.93;5.60;;;17.80;99.90;;;;;;5098253;28;20793;-57
2023/07/08 02:25:52;;;;;;;6.00;5.40;;;17.80;99.90;;;;;;5098173;28;20936;-57
2023/07/08 02:28:19;;;;;;;5.87;4.90;;;17.70;99.90;;;;;;5098669;28;20464;-56
2023/07/08 02:30:47;;;;;;;5.47;4.97;;;17.80;99.90;;;;;;5098276;28;20642;-57
2023/07/08 02:33:17;;;;;;;6.50;5.27;;;17.70;99.90;;;;;;5098003;28;20471;-57
2023/07/08 02:35:45;;;;;;;6.93;5.50;;;17.70;99.90;;;;;;5098302;28;20513;-57
2023/07/08 02:38:12;;;;;;;5.80;5.20;;;17.70;99.90;;;;;;5098352;28;20460;-58
2023/07/08 02:40:39;;;;;;;8.23;5.63;;;17.60;99.90;;;;;;5097684;28;20483;-58
2023/07/08 02:43:07;;;;;;;8.10;4.47;;;17.70;99.90;;;;;;5097553;28;20556;-56
2023/07/08 02:45:34;;;;;;;5.47;4.73;;;17.70;99.90;;;;;;5098152;28;20877;-56
2023/07/08 02:48:01;;;;;;;5.60;5.00;;;17.70;99.90;;;;;;5097996;28;20809;-57
2023/07/08 02:50:29;;;;;;;6.00;5.10;;;17.70;99.90;;;;;;5097955;28;20468;-56
2023/07/08 02:52:57;;;;;;;9.63;5.70;;;17.70;99.90;;;;;;5096965;28;20526;-57
2023/07/08 02:55:24;;;;;;;5.57;4.73;;;17.70;99.90;;;;;;5097485;28;20460;-55
2023/07/08 02:57:51;;;;;;;7.40;5.33;;;17.80;99.90;;;;;;5097295;28;20888;-57
2023/07/08 03:00:18;;;;;;;5.90;4.93;;;17.70;99.90;;;;;;5097041;28;20870;-57
2023/07/08 03:02:46;;;;;;;5.30;4.80;;;17.70;99.90;;;;;;5096474;28;20816;-56
2023/07/08 03:05:14;;;;;;;5.87;5.10;;;17.70;99.90;;;;;;5096198;28;20781;-56
2023/07/08 03:07:42;;;;;;;5.53;5.03;;;17.70;99.90;;;;;;5096590;28;20491;-57
2023/07/08 03:10:10;;;;;;;6.33;5.13;;;17.60;99.90;;;;;;5097734;28;20559;-57
2023/07/08 03:12:37;;;;;;;5.80;5.30;;;17.60;99.90;;;;;;5096750;28;20846;-57
2023/07/08 03:15:06;;;;;;;7.23;5.17;;;17.60;99.90;;;;;;5095852;28;20460;-57
2023/07/08 03:17:33;;;;;;;4.80;4.37;;;17.60;99.90;;;;;;5096068;28;20463;-57
2023/07/08 03:20:00;;;;;;;5.77;5.20;;;17.50;99.90;;;;;;5095846;28;20461;-58
2023/07/08 03:22:27;;;;;;;6.23;5.63;;;17.50;99.90;;;;;;5095759;28;20872;-58
2023/07/08 03:24:56;;;;;;;6.00;5.40;;;17.50;99.90;;;;;;5095236;28;20552;-56
2023/07/08 03:27:23;;;;;;;6.67;5.37;;;17.60;99.90;;;;;;5095852;28;20532;-56
2023/07/08 03:29:50;;;;;;;6.20;4.67;;;17.50;99.90;;;;;;5097116;28;20915;-56
2023/07/08 03:32:18;;;;;;;6.17;4.40;;;17.50;99.90;;;;;;5097076;28;20917;-57
2023/07/08 03:34:45;;;;;;;5.80;5.20;;;17.50;99.90;;;;;;5093356;28;20540;-56
2023/07/08 03:37:12;;;;;;;5.60;5.10;;;17.40;99.90;;;;;;5076903;28;20479;-56
2023/07/08 03:39:39;;;;;;;9.37;5.00;;;17.40;99.90;;;;;;5076227;28;20481;-56
2023/07/08 03:42:08;;;;;;;5.33;4.83;;;17.50;99.90;;;;;;5077012;28;20497;-56
2023/07/08 03:44:38;;;;;;;5.73;5.17;;;17.50;99.90;;;;;;5077046;28;20807;-56
2023/07/08 03:47:05;;;;;;;5.30;4.80;;;17.50;99.90;;;;;;5076911;28;20492;-56
2023/07/08 03:49:32;;;;;;;6.40;4.80;;;17.50;99.90;;;;;;5076642;28;20471;-57
2023/07/08 03:52:00;;;;;;;5.80;5.20;;;17.50;99.90;;;;;;5076898;28;20461;-57
2023/07/08 03:54:27;;;;;;;7.63;5.27;;;17.40;99.90;;;;;;5076924;28;20937;-57
2023/07/08 03:56:55;;;;;;;5.97;5.37;;;17.30;99.90;;;;;;5076575;28;20560;-57
2023/07/08 03:59:23;;;;;;;5.43;4.83;;;17.30;99.90;;;;;;5076933;28;20507;-57
2023/07/08 04:01:51;;;;;;;5.50;5.00;;;17.30;99.90;;;;;;5076265;28;20551;-57
2023/07/08 04:04:18;;;;;;;5.73;5.20;;;17.30;99.90;;;;;;5076449;28;20465;-57
2023/07/08 04:06:45;;;;;;;7.50;5.50;;;17.30;99.90;;;;;;5076471;28;20535;-56
2023/07/08 04:09:13;;;;;;;5.80;5.30;;;17.40;99.90;;;;;;5077126;28;20879;-57
2023/07/08 04:11:40;;;;;;;7.07;4.87;;;17.40;99.90;;;;;;5076881;28;20469;-57
2023/07/08 04:14:09;;;;;;;9.53;5.23;;;17.40;99.90;;;;;;5076484;28;20462;-57
2023/07/08 04:16:49;;;;;;;5.40;4.80;;;17.40;99.90;;;;;;5080193;28;20465;-56
2023/07/08 04:19:16;;;;;;;6.80;5.30;;;17.40;99.90;;;;;;5099064;28;20749;-56
2023/07/08 04:21:45;;;;;;;6.70;5.17;;;17.50;99.90;;;;;;5101038;28;20869;-56
2023/07/08 04:24:13;;;;;;;5.70;5.20;;;17.50;99.90;;;;;;5100268;28;20464;-57
2023/07/08 04:26:41;;;;;;;6.50;5.07;;;17.50;99.90;;;;;;5100423;28;20476;-56
2023/07/08 04:29:12;;;;;;;6.57;5.40;;;17.60;99.90;;;;;;5100500;28;20522;-56
2023/07/08 04:31:41;;;;;;;5.63;4.80;;;17.60;99.90;;;;;;5100554;28;20467;-57
2023/07/08 04:34:09;;;;;;;5.90;5.30;;;17.60;99.90;;;;;;5099989;28;20460;-56
2023/07/08 04:36:37;;;;;;;6.43;5.83;;;17.60;99.90;;;;;;5100213;28;20923;-56
2023/07/08 04:39:06;;;;;;;6.53;5.93;;;17.70;99.90;;;;;;5100195;28;20583;-56
2023/07/08 04:41:33;;;;;;;5.90;5.30;;;17.80;99.90;;;;;;5100044;28;20460;-57
2023/07/08 04:44:02;;;;;;;5.60;4.67;;;17.90;99.90;;;;;;5099790;28;20552;-57
2023/07/08 04:46:37;;;;;;;5.90;5.40;;;18.00;99.90;;;;;;5099802;28;20492;-57
2023/07/08 04:49:06;;;;;;;5.50;4.90;;;18.20;99.90;;;;;;5100267;28;20884;-56
2023/07/08 04:51:34;;;;;;;7.30;5.93;;;18.40;99.90;;;;;;5100392;28;20460;-56
2023/07/08 04:54:01;;;;;;;8.97;5.70;;;18.60;99.90;;;;;;5100028;28;20730;-57
2023/07/08 04:56:37;;;;;;;6.17;5.23;;;18.80;99.90;;;;;;5100079;28;20529;-57
2023/07/08 04:59:05;;;;;;;6.83;5.50;;;19.00;99.90;;;;;;5100204;28;20546;-57
2023/07/08 05:01:32;;;;;;;8.73;5.77;;;19.10;99.90;;;;;;5099915;28;20852;-57
2023/07/08 05:04:01;;;;;;;5.63;5.13;;;19.20;99.90;;;;;;5100156;28;20546;-57
2023/07/08 05:06:29;;;;;;;9.70;5.73;;;19.40;99.90;;;;;;5099386;28;20944;-57
2023/07/08 05:08:57;;;;;;;6.37;5.40;;;19.50;99.90;;;;;;5099881;28;20460;-57
2023/07/08 05:11:24;;;;;;;6.17;5.57;;;19.60;99.90;;;;;;5099706;28;20513;-58
2023/07/08 05:13:51;;;;;;;6.17;5.57;;;19.70;99.90;;;;;;5099141;28;20559;-57
2023/07/08 05:16:19;;;;;;;7.40;5.23;;;19.70;99.90;;;;;;5099311;28;20530;-57
2023/07/08 05:18:46;;;;;;;6.57;5.87;;;19.90;99.90;;;;;;5099428;28;20477;-57
2023/07/08 05:21:13;;;;;;;7.83;5.63;;;19.80;99.90;;;;;;5099617;28;20817;-57
2023/07/08 05:23:44;;;;;;;5.80;5.20;;;19.90;99.90;;;;;;5099042;28;20478;-57
2023/07/08 05:26:11;;;;;;;7.30;5.73;;;20.00;99.90;;;;;;5098501;28;20465;-57
2023/07/08 05:28:39;;;;;;;7.23;5.30;;;20.10;99.90;;;;;;5098985;28;20543;-57
2023/07/08 05:31:06;;;;;;;6.30;5.53;;;20.20;99.90;;;;;;5099608;28;20797;-57
2023/07/08 05:33:34;;;;;;;6.07;5.47;;;20.30;99.90;;;;;;5099335;28;20480;-57
2023/07/08 05:36:01;;;;;;;7.10;5.63;;;20.40;99.90;;;;;;5099525;28;20456;-57
2023/07/08 05:38:29;;;;;;;6.50;5.90;;;20.60;99.90;;;;;;5099109;28;20539;-59
2023/07/08 05:40:59;;;;;;;9.70;6.67;;;20.80;99.90;;;;;;5099095;28;20966;-57
2023/07/08 05:43:27;;;;;;;6.60;5.87;;;21.00;99.90;;;;;;5099048;28;20494;-58
2023/07/08 05:46:01;;;;;;;7.17;6.30;;;21.20;99.90;;;;;;5098818;28;20460;-57
2023/07/08 05:48:28;;;;;;;7.07;6.37;;;21.40;99.90;;;;;;5099081;28;20942;-57
2023/07/08 05:50:56;;;;;;;7.73;5.90;;;21.60;99.90;;;;;;5098794;28;20954;-58
2023/07/08 05:53:23;;;;;;;7.73;6.40;;;21.80;99.90;;;;;;5098904;28;20482;-58
2023/07/08 05:55:51;;;;;;;7.13;6.30;;;22.10;99.90;;;;;;5098587;28;20507;-58
2023/07/08 05:58:20;;;;;;;6.20;5.63;;;22.30;99.90;;;;;;5098747;28;20499;-58
2023/07/08 06:00:47;;;;;;;6.90;6.20;;;22.50;99.90;;;;;;5098676;28;20885;-57
2023/07/08 06:03:14;;;;;;;6.97;6.27;;;22.80;99.90;;;;;;5099057;28;20531;-58
2023/07/08 06:05:43;;;;;;;7.50;6.70;;;23.10;99.90;;;;;;5098745;28;20990;-58
2023/07/08 06:08:10;;;;;;;7.90;7.07;;;23.30;99.90;;;;;;5098877;28;20583;-58
2023/07/08 06:10:43;;;;;;;7.03;6.33;;;23.60;99.90;;;;;;5098324;28;20464;-58
2023/07/08 06:13:11;;;;;;;10.20;7.50;;;23.80;99.90;;;;;;5098379;28;20459;-58
2023/07/08 06:15:39;;;;;;;6.63;6.03;;;24.10;99.90;;;;;;5098499;28;20464;-58
2023/07/08 06:18:07;;;;;;;7.33;6.63;;;24.30;99.90;;;;;;5098022;28;20555;-58
2023/07/08 06:20:34;;;;;;;7.57;6.87;;;24.60;99.90;;;;;;5098248;28;20460;-58
2023/07/08 06:23:01;;;;;;;7.87;7.17;;;24.90;99.90;;;;;;5098497;28;20497;-58
2023/07/08 06:25:29;;;;;;;9.27;6.90;;;25.10;99.90;;;;;;5098240;28;20466;-59
2023/07/08 06:27:56;;;;;;;6.97;6.27;;;25.20;99.90;;;;;;5097945;28;20495;-58
2023/07/08 06:30:23;;;;;;;9.00;7.03;;;25.30;99.90;;;;;;5097888;28;20546;-59
2023/07/08 06:32:52;;;;;;;7.70;6.90;;;25.50;99.90;;;;;;5098105;28;20486;-58
2023/07/08 06:35:19;;;;;;;8.00;6.93;;;25.80;99.90;;;;;;5098379;28;20559;-58
2023/07/08 06:37:46;;;;;;;8.33;7.53;;;25.90;99.90;;;;;;5098098;28;20877;-59
2023/07/08 06:40:14;;;;;;;7.90;7.10;;;25.80;99.90;;;;;;5097588;28;20857;-58
2023/07/08 06:42:41;;;;;;;7.47;6.77;;;25.90;99.90;;;;;;5097440;28;20475;-60
2023/07/08 06:45:09;;;;;;;9.67;6.67;;;26.10;99.90;;;;;;5098221;28;20559;-59
2023/07/08 06:47:37;;;;;;;6.63;6.13;;;26.30;99.90;;;;;;5097869;28;20492;-58
2023/07/08 06:50:08;;;;;;;8.57;7.80;;;26.40;99.90;;;;;;5097442;28;20464;-60
2023/07/08 06:52:36;;;;;;;8.07;7.27;;;26.50;99.90;;;;;;5097880;28;20475;-60
2023/07/08 06:55:08;;;;;;;7.07;6.17;;;26.80;99.90;;;;;;5097847;28;20907;-59
2023/07/08 06:57:35;;;;;;;7.80;7.00;;;27.10;99.90;;;;;;5097776;28;20456;-59
2023/07/08 07:00:03;;;;;;;7.73;7.03;;;27.40;99.90;;;;;;5097480;28;20510;-59
2023/07/08 07:02:30;;;;;;;7.47;6.77;;;27.60;99.90;;;;;;5097380;28;20519;-59
2023/07/08 07:04:57;;;;;;;7.80;7.10;;;27.80;99.90;;;;;;5097863;28;20465;-59
2023/07/08 07:07:26;;;;;;;8.00;7.30;;;28.10;99.90;;;;;;5097826;28;20586;-60
2023/07/08 07:09:54;;;;;;;7.20;6.60;;;28.40;99.90;;;;;;5097291;28;20466;-59
2023/07/08 07:12:21;;;;;;;10.23;7.53;;;28.60;99.90;;;;;;5097375;28;20752;-59
2023/07/08 07:14:52;;;;;;;7.27;6.57;;;28.80;99.90;;;;;;5097436;28;20473;-59
2023/07/08 07:17:19;;;;;;;7.73;6.93;;;29.00;99.90;;;;;;5097612;28;20460;-59
2023/07/08 07:19:47;;;;;;;7.50;6.90;;;29.20;99.90;;;;;;5097765;28;20517;-58
2023/07/08 07:22:15;;;;;;;7.50;6.90;;;29.30;99.90;;;;;;5096629;28;20505;-60
2023/07/08 07:24:44;;;;;;;7.80;7.10;;;29.30;99.90;;;;;;5097317;28;20466;-60
2023/07/08 07:27:12;;;;;;;8.50;7.43;;;29.40;99.90;;;;;;5097180;28;20929;-61
2023/07/08 07:29:44;;;;;;;8.67;7.87;;;29.50;99.90;;;;;;5097099;28;20471;-59
2023/07/08 07:32:11;;;;;;;7.60;6.83;;;29.60;99.90;;;;;;5096989;28;20461;-60
2023/07/08 07:34:39;;;;;;;8.10;7.30;;;29.80;99.90;;;;;;5096229;28;20456;-60
2023/07/08 07:37:08;;;;;;;8.10;7.40;;;30.20;99.90;;;;;;5097442;28;20841;-60
2023/07/08 07:39:35;;;;;;;8.50;7.60;;;30.30;99.90;;;;;;5097028;28;20491;-58
2023/07/08 07:42:04;;;;;;;8.10;7.30;;;30.30;99.90;;;;;;5097052;28;20464;-60
2023/07/08 07:44:31;;;;;;;9.00;8.13;;;29.90;99.90;;;;;;5096453;28;20913;-60
2023/07/08 07:46:59;;;;;;;8.40;7.53;;;29.40;99.90;;;;;;5097246;28;20547;-60
2023/07/08 07:49:26;;;;;;;14.03;8.37;;;29.20;99.90;;;;;;5097220;28;20496;-60
2023/07/08 07:51:53;;;;;;;8.30;7.50;;;29.00;99.90;;;;;;5101043;28;20892;-59
2023/07/08 07:54:21;;;;;;;8.23;7.43;;;29.00;99.90;;;;;;5100909;28;20460;-60
2023/07/08 07:56:48;;;;;;;7.90;7.20;;;29.10;99.90;;;;;;5101002;28;20559;-61
2023/07/08 07:59:16;;;;;;;7.13;6.47;;;29.50;99.90;;;;;;5101424;28;20486;-62
2023/07/08 08:01:44;;;;;;;7.63;6.93;;;29.90;99.90;;;;;;5101194;28;20563;-60
2023/07/08 08:04:12;;;;;;;7.90;7.10;;;29.90;99.90;;;;;;5100674;28;20510;-60
2023/07/08 08:06:39;;;;;;;8.30;7.60;;;29.60;99.90;;;;;;5099113;28;20893;-61
2023/07/08 08:09:07;;;;;;;9.40;7.27;;;29.70;99.90;;;;;;5099776;28;20768;-59
2023/07/08 08:11:35;;;;;;;8.30;7.60;;;30.00;99.90;;;;;;5099659;28;20896;-62
2023/07/08 08:14:03;;;;;;;8.23;7.43;;;30.50;99.90;;;;;;5099319;28;20951;-61
2023/07/08 08:16:32;;;;;;;8.43;7.63;;;30.80;99.90;;;;;;5099395;28;20470;-62
2023/07/08 08:18:59;;;;;;;7.77;7.07;;;31.20;99.90;;;;;;5099874;28;20467;-61
2023/07/08 08:21:26;;;;;;;7.80;7.10;;;31.30;99.90;;;;;;5100017;28;20499;-61
2023/07/08 08:23:54;;;;;;;7.80;7.00;;;31.40;99.90;;;;;;5099656;28;20467;-61
2023/07/08 08:26:21;;;;;;;8.43;7.70;;;31.70;99.90;;;;;;5098709;28;20452;-60
2023/07/08 08:28:48;;;;;;;8.60;7.80;;;32.00;99.90;;;;;;5095136;28;20498;-61
2023/07/08 08:31:15;;;;;;;7.97;7.27;;;32.30;99.90;;;;;;5097542;28;20466;-62
2023/07/08 08:33:44;;;;;;;8.77;7.17;;;32.70;99.90;;;;;;5097944;28;20467;-62
2023/07/08 08:36:12;;;;;;;8.33;7.63;;;32.80;99.90;;;;;;5098544;28;20466;-60
2023/07/08 08:38:39;;;;;;;7.03;6.43;;;32.70;99.90;;;;;;5098871;28;20455;-61
2023/07/08 08:41:13;;;;;;;8.03;7.33;;;32.70;99.90;;;;;;5100313;28;20558;-61
2023/07/08 08:43:42;;;;;;;7.40;6.70;;;32.70;99.90;;;;;;5099252;28;20463;-63
2023/07/08 08:46:17;;;;;;;9.27;8.50;;;32.90;99.90;;;;;;5098827;28;20461;-61
2023/07/08 08:48:53;;;;;;;7.50;6.80;;;32.50;99.90;;;;;;5099814;28;20882;-62
2023/07/08 08:51:20;;;;;;;10.20;7.27;;;32.80;99.90;;;;;;5098850;28;20455;-62
2023/07/08 08:53:48;;;;;;;8.73;7.90;;;32.90;99.90;;;;;;5098634;28;20878;-61
2023/07/08 08:56:21;;;;;;;8.80;7.90;;;33.00;99.90;;;;;;5098791;28;20464;-61
2023/07/08 08:58:58;;;;;;;8.10;7.50;;;33.10;99.90;;;;;;5099189;28;20885;-60
2023/07/08 09:01:26;;;;;;;7.13;6.43;;;33.30;99.90;;;;;;5098099;28;20520;-61
2023/07/08 09:04:00;;;;;;;7.43;6.77;;;33.30;99.90;;;;;;5099039;28;20463;-62
2023/07/08 09:06:30;;;;;;;7.00;6.30;;;33.50;99.90;;;;;;5099832;28;20463;-62
2023/07/08 09:09:02;;;;;;;8.13;7.27;;;33.60;99.90;;;;;;5099765;28;20491;-60
2023/07/08 09:11:41;;;;;;;9.60;7.10;;;33.40;99.90;;;;;;5099570;28;20459;-60
2023/07/08 09:14:15;;;;;;;7.50;6.80;;;32.80;99.90;;;;;;5099326;28;20466;-61
2023/07/08 09:16:49;;;;;;;7.20;6.60;;;32.40;99.90;;;;;;5099234;28;20498;-60
2023/07/08 09:19:23;;;;;;;6.77;6.13;;;32.10;99.90;;;;;;5099755;28;20589;-61
2023/07/08 09:21:56;;;;;;;6.20;5.60;;;32.00;99.90;;;;;;5099379;28;20491;-61
2023/07/08 09:24:30;;;;;;;6.07;5.53;;;32.50;99.90;;;;;;5099690;28;20907;-59
2023/07/08 09:27:01;;;;;;;7.03;5.63;;;32.90;99.90;;;;;;5099716;28;20466;-62
2023/07/08 09:29:29;;;;;;;7.00;6.40;;;33.30;99.90;;;;;;5099373;28;20494;-61
2023/07/08 09:31:58;;;;;;;6.60;5.80;;;33.60;99.90;;;;;;5099258;28;20459;-60
2023/07/08 09:34:41;;;;;;;6.77;6.27;;;34.00;99.90;;;;;;5098716;28;20850;-61
2023/07/08 09:37:26;;;;;;;6.37;5.87;;;34.20;99.90;;;;;;5099592;28;20491;-61
2023/07/08 09:39:55;;;;;;;6.57;5.97;;;34.70;99.90;;;;;;5098709;28;20484;-61
2023/07/08 09:42:26;;;;;;;6.00;5.50;;;34.50;99.90;;;;;;5098809;28;20970;-61
2023/07/08 09:44:58;;;;;;;6.33;5.33;;;34.50;99.90;;;;;;5098596;28;20530;-62
2023/07/08 09:47:30;;;;;;;7.13;6.20;;;34.80;99.90;;;;;;5098509;28;20466;-62
2023/07/08 09:50:01;;;;;;;6.03;5.53;;;35.00;99.90;;;;;;5097210;28;20542;-61
2023/07/08 09:52:31;;;;;;;6.40;5.80;;;35.00;99.90;;;;;;5098346;28;20565;-62
2023/07/08 09:54:58;;;;;;;6.50;5.90;;;35.10;99.90;;;;;;5098661;28;20462;-62
2023/07/08 09:57:29;;;;;;;8.33;6.00;;;35.30;99.90;;;;;;5098870;28;20464;-60
2023/07/08 10:00:02;;;;;;;6.57;5.97;;;34.90;99.90;;;;;;5096918;28;20647;-63
2023/07/08 10:02:32;;;;;;;6.33;5.83;;;34.70;99.90;;;;;;5096895;28;20908;-63
2023/07/08 10:05:13;;;;;;;7.03;5.90;;;34.60;99.90;;;;;;5096675;28;20460;-63
2023/07/08 10:07:43;;;;;;;6.67;5.87;;;34.60;99.90;;;;;;5097218;28;20459;-62
2023/07/08 10:10:17;;;;;;;7.30;6.60;;;34.70;99.90;;;;;;5097091;28;20481;-63
2023/07/08 10:12:56;;;;;;;6.70;6.10;;;34.50;99.90;;;;;;5096487;28;20513;-62
2023/07/08 10:15:30;;;;;;;6.40;5.70;;;34.70;99.90;;;;;;5098695;28;20487;-61
2023/07/08 10:18:00;;;;;;;6.90;6.30;;;34.80;99.90;;;;;;5097969;28;20547;-60
2023/07/08 10:20:44;;;;;;;5.87;5.37;;;34.90;99.90;;;;;;5098211;28;20507;-63
2023/07/08 10:23:30;;;;;;;6.23;5.33;;;34.80;99.90;;;;;;5098308;28;20935;-61
2023/07/08 10:26:07;;;;;;;7.37;6.67;;;34.70;99.90;;;;;;5098171;28;20460;-62
2023/07/08 10:28:45;;;;;;;6.50;5.90;;;34.90;99.90;;;;;;5097675;28;20583;-60
2023/07/08 10:31:25;;;;;;;6.67;5.30;;;35.10;99.90;;;;;;5098350;28;20464;-61
2023/07/08 10:34:07;;;;;;;5.57;5.07;;;35.30;99.90;;;;;;5097986;28;20459;-62
2023/07/08 10:36:46;;;;;;;8.73;5.47;;;35.20;99.90;;;;;;5098561;28;20467;-62
2023/07/08 10:39:39;;;;;;;9.17;5.00;;;35.30;99.90;;;;;;5097918;28;20485;-62
2023/07/08 10:42:18;;;;;;;5.77;5.17;;;35.30;99.90;;;;;;5097925;28;20463;-61
2023/07/08 10:44:52;;;;;;;6.03;5.43;;;35.70;99.90;;;;;;5097766;28;20464;-61
2023/07/08 10:47:33;;;;;;;6.37;5.77;;;36.00;99.90;;;;;;5097527;28;20865;-62
2023/07/08 10:50:12;;;;;;;6.40;5.80;;;36.10;99.90;;;;;;5097891;28;20862;-62
2023/07/08 10:52:52;;;;;;;6.83;6.10;;;36.20;99.90;;;;;;5097706;28;20460;-61
2023/07/08 10:55:33;;;;;;;5.73;5.33;;;36.00;99.90;;;;;;5098108;28;20798;-62
2023/07/08 10:58:24;;;;;;;5.93;5.43;;;36.20;99.90;;;;;;5097435;28;20474;-61
2023/07/08 11:01:03;;;;;;;6.43;5.73;;;36.40;99.90;;;;;;5097888;28;20470;-62
2023/07/08 11:03:56;;;;;;;6.15;5.55;;;36.60;99.90;;;;;;5097075;28;20211;-61
2023/07/08 11:06:29;;;;;;;6.88;6.28;;;36.90;99.90;;;;;;5096679;28;20808;-62
2023/07/08 11:09:01;;;;;;;7.35;6.50;;;37.00;99.90;;;;;;5097283;28;20252;-61
2023/07/08 11:11:36;;;;;;;6.30;5.75;;;36.90;99.90;;;;;;5097444;28;20205;-61
2023/07/08 11:14:11;;;;;;;6.90;6.30;;;37.20;99.90;;;;;;5096914;28;20204;-60
2023/07/08 11:16:46;;;;;;;6.32;5.72;;;37.50;99.90;;;;;;5097462;28;20237;-62
2023/07/08 11:19:19;;;;;;;8.52;7.82;;;37.70;99.90;;;;;;5096818;28;20193;-62
2023/07/08 11:21:49;;;;;;;6.53;5.93;;;37.90;99.90;;;;;;5096837;28;20259;-61
2023/07/08 11:24:27;;;;;;;6.40;5.80;;;37.80;99.90;;;;;;5096965;28;20275;-62
2023/07/08 11:26:58;;;;;;;5.55;5.03;;;38.00;99.90;;;;;;5097602;28;20305;-62
2023/07/08 11:29:33;;;;;;;7.88;7.18;;;38.00;99.90;;;;;;5096717;28;20332;-61
2023/07/08 11:32:01;;;;;;;6.78;6.18;;;38.20;99.90;;;;;;5096135;28;20205;-62
2023/07/08 11:34:30;;;;;;;6.10;5.50;;;38.30;99.90;;;;;;5089470;28;20506;-61
2023/07/08 11:37:00;;;;;;;6.32;5.70;;;38.30;99.90;;;;;;5085422;28;20205;-61
2023/07/08 11:39:34;;;;;;;7.43;5.35;;;38.50;99.90;;;;;;5095135;28;20232;-61
2023/07/08 11:42:18;;;;;;;6.57;6.07;;;38.80;99.90;;;;;;5096709;28;20259;-61
2023/07/08 11:44:51;;;;;;;6.82;6.15;;;38.80;99.90;;;;;;5097531;28;20256;-61
2023/07/08 11:47:22;;;;;;;7.03;6.32;;;38.50;99.90;;;;;;5097307;28;20245;-61
2023/07/08 11:49:53;;;;;;;6.47;5.88;;;38.60;99.90;;;;;;5096535;28;20226;-61
2023/07/08 11:52:23;;;;;;;6.63;6.03;;;38.60;99.90;;;;;;5097170;28;20231;-62
2023/07/08 11:55:03;;;;;;;7.47;5.88;;;38.30;99.90;;;;;;5097021;28;20205;-60
2023/07/08 11:57:37;;;;;;;6.90;6.30;;;38.40;99.90;;;;;;5097337;28;20233;-61
2023/07/08 12:00:17;;;;;;;6.30;5.80;;;38.30;99.90;;;;;;5096949;28;20255;-61
2023/07/08 12:02:54;;;;;;;5.82;5.32;;;38.60;99.90;;;;;;5096572;28;20214;-61
2023/07/08 12:05:32;;;;;;;6.00;5.50;;;38.50;99.90;;;;;;5097499;28;20245;-62
2023/07/08 12:08:03;;;;;;;5.80;5.30;;;38.70;99.90;;;;;;5096607;28;20302;-61
2023/07/08 12:10:36;;;;;;;5.95;5.55;;;38.70;99.90;;;;;;5096641;28;20229;-61
2023/07/08 12:13:04;;;;;;;4.65;4.35;;;38.80;99.90;;;;;;5097388;28;20237;-63
2023/07/08 12:15:33;;;;;;;5.80;5.30;;;38.60;99.90;;;;;;5097366;28;20271;-63
2023/07/08 12:18:03;;;;;;;5.88;5.32;;;38.50;99.90;;;;;;5096798;28;20599;-62
2023/07/08 12:20:33;;;;;;;5.82;5.32;;;38.70;99.90;;;;;;5096359;28;20209;-61
2023/07/08 12:23:01;;;;;;;5.60;5.10;;;38.40;99.90;;;;;;5096778;28;20206;-62
2023/07/08 12:25:34;;;;;;;6.03;5.53;;;38.40;99.90;;;;;;5097097;28;20212;-62
2023/07/08 12:28:02;;;;;;;4.60;4.25;;;38.70;99.90;;;;;;5096532;28;20592;-62
2023/07/08 12:30:32;;;;;;;5.30;4.80;;;38.60;99.90;;;;;;5096896;28;20226;-63
2023/07/08 12:33:00;;;;;;;5.88;5.38;;;38.80;99.90;;;;;;5096899;28;20301;-62
2023/07/08 12:35:30;;;;;;;6.28;5.88;;;38.70;99.90;;;;;;5096955;28;20245;-62
2023/07/08 12:38:01;;;;;;;5.88;5.00;;;38.80;99.90;;;;;;5100380;28;20296;-61
2023/07/08 12:40:30;;;;;;;4.53;4.13;;;38.80;99.90;;;;;;5099482;28;20649;-62
2023/07/08 12:43:00;;;;;;;5.72;5.32;;;38.80;99.90;;;;;;5099759;28;20241;-62
2023/07/08 12:45:31;;;;;;;5.82;5.20;;;38.70;99.90;;;;;;5099524;28;20198;-62
2023/07/08 12:47:58;;;;;;;6.30;5.75;;;38.90;99.90;;;;;;5100378;28;20267;-61
2023/07/08 12:50:26;;;;;;;5.22;4.78;;;39.00;99.90;;;;;;5099853;28;20230;-61
2023/07/08 12:52:53;;;;;;;5.72;5.20;;;39.40;99.90;;;;;;5100278;28;20206;-62
2023/07/08 12:55:21;;;;;;;5.50;5.00;;;39.60;99.90;;;;;;5099173;28;20281;-61
2023/07/08 12:57:51;;;;;;;8.32;5.78;;;39.70;99.90;;;;;;5099389;28;20201;-62
2023/07/08 13:00:25;;;;;;;5.68;5.18;;;40.00;99.90;;;;;;5099363;28;20243;-63